createdAt,value
2022-12-27T00:01:55.352Z,87.11
2022-12-27T00:04:23.833Z,87.61
2022-12-27T00:06:52.044Z,87.36
2022-12-27T00:09:20.337Z,87.65
2022-12-27T00:11:48.628Z,88.10
2022-12-27T00:14:16.931Z,87.22
2022-12-27T00:16:45.294Z,87.18
2022-12-27T00:19:14.981Z,87.51
2022-12-27T00:21:43.217Z,88.31
2022-12-27T00:24:12.148Z,87.93
2022-12-27T00:26:41.022Z,87.44
2022-12-27T00:29:09.342Z,87.94
2022-12-27T00:31:39.666Z,87.36
2022-12-27T00:34:09.650Z,87.75
2022-12-27T00:36:39.321Z,87.93
2022-12-27T00:39:07.634Z,87.66
2022-12-27T00:41:35.901Z,87.88
2022-12-27T00:44:04.514Z,88.46
2022-12-27T00:46:32.850Z,87.34
2022-12-27T00:49:01.118Z,87.63
2022-12-27T00:51:29.506Z,88.45
2022-12-27T00:53:59.177Z,88.32
2022-12-27T00:56:29.806Z,87.67
2022-12-27T00:59:00.769Z,88.56
2022-12-27T01:01:31.389Z,88.41
2022-12-27T01:04:00.219Z,88.53
2022-12-27T01:06:34.917Z,87.78
2022-12-27T01:09:06.118Z,88.14
2022-12-27T01:11:35.273Z,88.61
2022-12-27T01:14:06.120Z,87.95
2022-12-27T01:16:35.894Z,88.60
2022-12-27T01:19:04.287Z,88.76
2022-12-27T01:21:32.638Z,88.70
2022-12-27T01:24:01.072Z,88.55
2022-12-27T01:26:30.744Z,88.14
2022-12-27T01:28:59.045Z,88.53
2022-12-27T01:31:29.550Z,88.09
2022-12-27T01:33:59.941Z,88.52
2022-12-27T01:36:30.008Z,88.74
2022-12-27T01:38:59.211Z,88.63
2022-12-27T01:41:49.932Z,88.27
2022-12-27T01:44:50.804Z,88.52
2022-12-27T01:47:41.858Z,88.03
2022-12-27T01:50:20.660Z,88.57
2022-12-27T01:52:57.785Z,88.51
2022-12-27T01:55:33.244Z,87.89
2022-12-27T01:58:08.785Z,88.56
2022-12-27T02:00:37.483Z,88.50
2022-12-27T02:03:07.420Z,88.55
2022-12-27T02:05:41.709Z,88.24
2022-12-27T02:08:36.906Z,88.45
2022-12-27T02:11:07.245Z,89.28
2022-12-27T02:13:42.867Z,89.34
2022-12-27T02:16:14.703Z,89.54
2022-12-27T02:18:43.943Z,89.48
2022-12-27T02:21:57.370Z,89.84
2022-12-27T02:25:01.761Z,89.21
2022-12-27T02:27:56.342Z,89.74
2022-12-27T02:30:26.249Z,89.16
2022-12-27T02:33:02.245Z,89.93
2022-12-27T02:35:36.981Z,89.93
2022-12-27T02:38:11.859Z,89.67
2022-12-27T02:41:01.005Z,89.74
2022-12-27T02:43:47.438Z,90.49
2022-12-27T02:46:40.359Z,90.35
2022-12-27T02:49:43.177Z,90.12
2022-12-27T02:52:43.111Z,90.42
2022-12-27T02:55:32.862Z,90.52
2022-12-27T02:58:19.074Z,90.87
2022-12-27T03:01:13.200Z,90.21
2022-12-27T03:04:12.004Z,91.08
2022-12-27T03:07:09.364Z,90.73
2022-12-27T03:10:10.067Z,90.13
2022-12-27T03:13:18.802Z,91.01
2022-12-27T03:16:05.245Z,90.63
2022-12-27T03:19:08.964Z,91.04
2022-12-27T03:21:59.800Z,91.31
2022-12-27T03:24:49.838Z,91.24
2022-12-27T03:27:28.416Z,90.77
2022-12-27T03:30:16.763Z,91.28
2022-12-27T03:33:08.638Z,91.25
2022-12-27T03:36:04.483Z,91.82
2022-12-27T03:38:36.559Z,91.35
2022-12-27T03:41:25.882Z,91.15
2022-12-27T03:43:54.208Z,91.32
2022-12-27T03:46:33.829Z,91.40
2022-12-27T03:49:15.619Z,91.33
2022-12-27T03:51:50.691Z,91.95
2022-12-27T03:54:26.509Z,91.77
2022-12-27T03:56:58.661Z,91.26
2022-12-27T03:59:27.440Z,91.55
2022-12-27T04:01:55.971Z,91.25
2022-12-27T04:04:24.725Z,91.33
2022-12-27T04:06:54.383Z,91.35
2022-12-27T04:09:40.343Z,91.56
2022-12-27T04:12:26.497Z,92.07
2022-12-27T04:15:12.436Z,91.45
2022-12-27T04:17:58.031Z,91.97
2022-12-27T04:20:44.402Z,92.33
2022-12-27T04:23:31.546Z,92.22
2022-12-27T04:26:17.464Z,92.47
2022-12-27T04:29:03.368Z,92.37
2022-12-27T04:31:48.840Z,92.02
2022-12-27T04:34:35.404Z,92.02
2022-12-27T04:37:04.483Z,92.55
2022-12-27T04:39:34.472Z,92.68
2022-12-27T04:42:20.092Z,92.72
2022-12-27T04:45:10.200Z,93.12
2022-12-27T04:47:59.025Z,92.80
2022-12-27T04:50:48.149Z,92.69
2022-12-27T04:53:42.032Z,92.55
2022-12-27T04:56:11.784Z,92.30
2022-12-27T04:59:00.123Z,93.09
2022-12-27T05:01:46.044Z,93.14
2022-12-27T05:04:14.716Z,92.70
2022-12-27T05:06:43.078Z,92.51
2022-12-27T05:09:28.709Z,93.13
2022-12-27T05:12:15.052Z,92.54
2022-12-27T05:14:43.323Z,92.93
2022-12-27T05:17:11.597Z,92.86
2022-12-27T05:19:40.068Z,93.04
2022-12-27T05:22:26.134Z,92.90
2022-12-27T05:25:11.772Z,92.87
2022-12-27T05:27:41.458Z,92.96
2022-12-27T05:30:11.348Z,92.56
2022-12-27T05:32:39.581Z,92.17
2022-12-27T05:35:08.714Z,93.02
2022-12-27T05:37:36.925Z,92.76
2022-12-27T05:40:06.480Z,92.35
2022-12-27T05:42:34.771Z,92.76
2022-12-27T05:45:04.872Z,92.68
2022-12-27T05:47:33.745Z,92.65
2022-12-27T05:50:02.047Z,93.33
2022-12-27T05:52:36.191Z,92.65
2022-12-27T05:55:08.668Z,92.49
2022-12-27T05:57:37.007Z,93.10
2022-12-27T06:00:09.268Z,92.83
2022-12-27T06:02:39.540Z,92.76
2022-12-27T06:05:08.980Z,93.14
2022-12-27T06:07:38.635Z,93.09
2022-12-27T06:10:09.340Z,93.25
2022-12-27T06:12:38.196Z,92.82
2022-12-27T06:15:09.110Z,92.56
2022-12-27T06:17:37.366Z,93.02
2022-12-27T06:20:06.847Z,93.06
2022-12-27T06:22:35.130Z,93.04
2022-12-27T06:25:03.625Z,92.37
2022-12-27T06:27:31.937Z,92.75
2022-12-27T06:30:00.241Z,93.15
2022-12-27T06:32:30.116Z,93.46
2022-12-27T06:34:58.387Z,92.43
2022-12-27T06:37:26.726Z,93.16
2022-12-27T06:39:54.983Z,92.52
2022-12-27T06:42:23.278Z,92.55
2022-12-27T06:44:51.542Z,92.35
2022-12-27T06:47:20.079Z,92.58
2022-12-27T06:49:49.727Z,92.89
2022-12-27T06:52:17.985Z,93.71
2022-12-27T06:54:46.364Z,92.86
2022-12-27T06:57:14.767Z,93.30
2022-12-27T06:59:43.044Z,93.00
2022-12-27T07:02:12.777Z,93.20
2022-12-27T07:04:41.233Z,92.72
2022-12-27T07:07:15.650Z,93.79
2022-12-27T07:09:44.517Z,93.25
2022-12-27T07:12:13.558Z,92.72
2022-12-27T07:14:41.862Z,93.81
2022-12-27T07:17:10.131Z,93.42
2022-12-27T07:19:38.473Z,93.81
2022-12-27T07:22:06.800Z,93.31
2022-12-27T07:24:36.494Z,93.95
2022-12-27T07:27:05.295Z,93.75
2022-12-27T07:29:33.660Z,93.81
2022-12-27T07:32:02.053Z,92.95
2022-12-27T07:34:30.443Z,94.07
2022-12-27T07:36:58.676Z,93.08
2022-12-27T07:39:26.976Z,93.96
2022-12-27T07:41:56.688Z,93.00
2022-12-27T07:44:25.044Z,93.81
2022-12-27T07:46:53.400Z,93.08
2022-12-27T07:49:21.688Z,93.18
2022-12-27T07:51:50.997Z,93.91
2022-12-27T07:54:19.414Z,92.96
2022-12-27T07:56:47.664Z,92.94
2022-12-27T07:59:17.553Z,92.88
2022-12-27T08:02:03.261Z,93.16
2022-12-27T08:04:33.057Z,93.17
2022-12-27T08:07:08.533Z,94.10
2022-12-27T08:09:41.110Z,94.04
2022-12-27T08:12:09.897Z,93.18
2022-12-27T08:14:39.502Z,93.30
2022-12-27T08:17:14.497Z,93.68
2022-12-27T08:19:42.833Z,93.48
2022-12-27T08:22:11.355Z,93.07
2022-12-27T08:24:41.629Z,93.65
2022-12-27T08:27:10.091Z,93.64
2022-12-27T08:29:40.046Z,93.45
2022-12-27T08:32:08.362Z,93.22
2022-12-27T08:34:36.724Z,93.15
2022-12-27T08:37:05.029Z,93.56
2022-12-27T08:39:33.390Z,94.13
2022-12-27T08:42:01.683Z,94.35
2022-12-27T08:44:30.004Z,94.20
2022-12-27T08:46:59.582Z,93.46
2022-12-27T08:49:27.863Z,94.28
2022-12-27T08:51:56.112Z,94.02
2022-12-27T08:54:25.068Z,93.50
2022-12-27T08:56:53.347Z,93.62
2022-12-27T08:59:21.647Z,93.80
2022-12-27T09:01:50.008Z,94.34
2022-12-27T09:04:19.744Z,94.27
2022-12-27T09:06:47.968Z,94.74
2022-12-27T09:09:16.494Z,94.31
2022-12-27T09:11:45.167Z,93.99
2022-12-27T09:14:13.544Z,94.48
2022-12-27T09:16:41.798Z,93.60
2022-12-27T09:19:11.468Z,94.19
2022-12-27T09:21:43.990Z,94.07
2022-12-27T09:24:13.108Z,94.36
2022-12-27T09:26:42.541Z,94.12
2022-12-27T09:29:11.827Z,94.20
2022-12-27T09:31:40.092Z,94.21
2022-12-27T09:34:08.335Z,94.73
2022-12-27T09:36:41.451Z,95.06
2022-12-27T09:39:12.250Z,94.23
2022-12-27T09:44:47.385Z,93.66
2022-12-27T09:47:21.773Z,94.22
2022-12-27T09:49:54.289Z,94.25
2022-12-27T09:52:33.016Z,94.54
2022-12-27T09:55:07.825Z,94.30
2022-12-27T09:57:39.984Z,94.77
2022-12-27T10:00:16.886Z,94.13
2022-12-27T10:02:46.185Z,94.51
2022-12-27T10:05:22.743Z,94.00
2022-12-27T10:08:09.026Z,94.44
2022-12-27T10:10:46.260Z,94.82
2022-12-27T10:13:31.152Z,94.35
2022-12-27T10:16:11.868Z,94.42
2022-12-27T10:18:53.722Z,94.27
2022-12-27T10:21:25.320Z,94.19
2022-12-27T10:23:58.235Z,94.54
2022-12-27T10:26:26.643Z,93.93
2022-12-27T10:29:00.131Z,94.11
2022-12-27T10:31:29.880Z,94.05
2022-12-27T10:33:59.102Z,94.08
2022-12-27T10:36:29.546Z,94.15
2022-12-27T10:38:59.199Z,93.93
2022-12-27T10:41:50.189Z,93.81
2022-12-27T10:44:20.050Z,93.56
2022-12-27T10:46:53.340Z,93.50
2022-12-27T10:49:27.512Z,93.05
2022-12-27T10:51:59.835Z,92.87
2022-12-27T10:54:31.378Z,92.89
2022-12-27T10:57:19.830Z,93.11
2022-12-27T11:00:18.468Z,92.69
2022-12-27T11:02:54.707Z,92.43
2022-12-27T11:05:26.540Z,92.58
2022-12-27T11:07:55.227Z,92.13
2022-12-27T11:10:28.089Z,92.30
2022-12-27T11:12:59.568Z,92.36
2022-12-27T11:15:28.682Z,92.30
2022-12-27T11:17:59.813Z,92.22
2022-12-27T11:20:31.560Z,92.32
2022-12-27T11:23:04.309Z,91.86
2022-12-27T11:25:34.851Z,91.87
2022-12-27T11:28:05.876Z,91.70
2022-12-27T11:30:36.658Z,92.26
2022-12-27T11:33:24.562Z,91.33
2022-12-27T11:35:57.071Z,91.67
2022-12-27T11:38:28.591Z,90.88
2022-12-27T11:41:04.505Z,90.75
2022-12-27T11:43:37.130Z,90.99
2022-12-27T11:46:18.096Z,91.34
2022-12-27T11:48:47.375Z,91.48
2022-12-27T11:51:41.160Z,90.71
2022-12-27T11:54:30.849Z,90.71
2022-12-27T11:57:20.113Z,90.26
2022-12-27T12:00:01.279Z,89.71
2022-12-27T12:03:00.837Z,89.78
2022-12-27T12:06:04.629Z,89.96
2022-12-27T12:09:06.115Z,90.33
2022-12-27T12:11:55.125Z,89.36
2022-12-27T12:15:11.632Z,90.43
2022-12-27T12:18:01.927Z,89.31
2022-12-27T12:21:05.963Z,89.50
2022-12-27T12:23:55.264Z,90.44
2022-12-27T12:26:25.198Z,89.89
2022-12-27T12:29:26.226Z,89.67
2022-12-27T12:32:34.241Z,88.74
2022-12-27T12:35:28.863Z,88.18
2022-12-27T12:38:20.047Z,89.17
2022-12-27T12:41:17.982Z,87.91
2022-12-27T12:44:34.032Z,88.12
2022-12-27T12:47:16.024Z,87.89
2022-12-27T12:50:01.997Z,87.77
2022-12-27T12:53:17.059Z,87.89
2022-12-27T12:56:10.715Z,88.39
2022-12-27T12:58:54.159Z,87.22
2022-12-27T13:01:50.499Z,87.14
2022-12-27T13:04:32.416Z,87.46
2022-12-27T13:07:23.358Z,86.96
2022-12-27T13:10:16.238Z,86.80
2022-12-27T13:12:53.030Z,86.90
2022-12-27T13:15:34.643Z,87.59
2022-12-27T13:18:16.463Z,86.45
2022-12-27T13:21:14.967Z,86.87
2022-12-27T13:23:54.985Z,86.33
2022-12-27T13:26:38.075Z,86.45
2022-12-27T13:29:36.007Z,86.55
2022-12-27T13:32:14.611Z,86.66
2022-12-27T13:34:55.289Z,86.63
2022-12-27T13:37:37.952Z,86.28
2022-12-27T13:40:36.284Z,87.42
2022-12-27T13:43:38.330Z,85.75
2022-12-27T13:46:35.296Z,87.21
2022-12-27T13:49:33.273Z,87.26
2022-12-27T13:52:14.300Z,86.59
2022-12-27T13:55:27.455Z,86.89
2022-12-27T13:58:36.625Z,86.90
2022-12-27T14:01:30.938Z,87.33
2022-12-27T14:04:52.331Z,86.98
2022-12-27T14:07:54.311Z,87.32
2022-12-27T14:10:37.317Z,86.97
2022-12-27T14:13:08.703Z,86.96
2022-12-27T14:16:30.009Z,87.27
2022-12-27T14:19:21.311Z,86.84
2022-12-27T14:22:10.129Z,87.28
2022-12-27T14:25:37.250Z,86.97
2022-12-27T14:29:01.214Z,87.59
2022-12-27T14:32:05.540Z,87.39
2022-12-27T14:35:29.786Z,87.73
2022-12-27T14:38:45.151Z,87.47
2022-12-27T14:42:06.143Z,87.68
2022-12-27T14:45:36.420Z,88.11
2022-12-27T14:49:01.976Z,87.82
2022-12-27T14:52:34.586Z,88.16
2022-12-27T14:55:27.595Z,87.40
2022-12-27T14:58:33.483Z,87.66
2022-12-27T15:01:12.017Z,87.60
2022-12-27T15:04:05.727Z,87.62
2022-12-27T15:06:58.165Z,88.27
2022-12-27T15:09:36.896Z,88.04
2022-12-27T15:12:16.065Z,88.30
2022-12-27T15:15:06.181Z,88.18
2022-12-27T15:17:55.185Z,88.50
2022-12-27T15:20:59.841Z,88.10
2022-12-27T15:23:39.878Z,89.08
2022-12-27T15:26:22.463Z,88.94
2022-12-27T15:29:22.772Z,88.64
2022-12-27T15:32:05.663Z,88.70
2022-12-27T15:34:57.391Z,89.24
2022-12-27T15:38:08.247Z,89.07
2022-12-27T15:41:10.239Z,89.21
2022-12-27T15:44:11.588Z,89.32
2022-12-27T15:47:18.918Z,89.35
2022-12-27T15:50:32.110Z,89.88
2022-12-27T15:53:35.303Z,89.52
2022-12-27T15:56:44.547Z,89.92
2022-12-27T15:59:43.166Z,89.78
2022-12-27T16:02:26.835Z,89.93
2022-12-27T16:04:58.497Z,89.79
2022-12-27T16:07:52.576Z,89.66
2022-12-27T16:10:50.370Z,89.62
2022-12-27T16:13:41.336Z,89.72
2022-12-27T16:17:00.239Z,89.36
2022-12-27T16:20:09.693Z,89.73
2022-12-27T16:22:41.101Z,89.53
2022-12-27T16:25:33.678Z,89.94
2022-12-27T16:28:06.715Z,89.99
2022-12-27T16:30:44.209Z,89.71
2022-12-27T16:33:37.763Z,89.97
2022-12-27T16:36:32.822Z,90.50
2022-12-27T16:39:26.534Z,90.97
2022-12-27T16:42:06.876Z,90.50
2022-12-27T16:45:02.641Z,90.58
2022-12-27T16:48:08.093Z,90.76
2022-12-27T16:50:54.236Z,90.96
2022-12-27T16:54:16.618Z,91.03
2022-12-27T16:56:48.217Z,91.42
2022-12-27T16:59:56.479Z,91.21
2022-12-27T17:02:41.859Z,91.23
2022-12-27T17:05:37.357Z,91.38
2022-12-27T17:08:20.243Z,91.53
2022-12-27T17:11:05.299Z,91.53
2022-12-27T17:13:43.270Z,91.78
2022-12-27T17:16:23.090Z,91.75
2022-12-27T17:18:57.983Z,91.77
2022-12-27T17:21:31.592Z,91.56
2022-12-27T17:24:06.997Z,92.04
2022-12-27T17:27:02.173Z,91.81
2022-12-27T17:30:13.517Z,91.87
2022-12-27T17:33:19.303Z,91.86
2022-12-27T17:36:07.875Z,91.56
2022-12-27T17:38:57.882Z,91.92
2022-12-27T17:41:57.018Z,92.30
2022-12-27T17:44:40.443Z,92.07
2022-12-27T17:47:28.428Z,92.49
2022-12-27T17:50:00.475Z,92.10
2022-12-27T17:52:46.245Z,92.36
2022-12-27T17:55:53.954Z,92.30
2022-12-27T17:58:22.228Z,92.59
2022-12-27T18:00:58.311Z,92.46
2022-12-27T18:03:32.744Z,92.55
2022-12-27T18:06:01.153Z,92.57
2022-12-27T18:08:34.305Z,92.26
2022-12-27T18:11:06.952Z,92.77
2022-12-27T18:13:39.159Z,92.56
2022-12-27T18:16:17.266Z,92.76
2022-12-27T18:18:50.049Z,92.53
2022-12-27T18:21:27.018Z,92.64
2022-12-27T18:23:56.130Z,92.71
2022-12-27T18:26:37.806Z,92.48
2022-12-27T18:29:06.777Z,92.68
2022-12-27T18:31:40.561Z,92.87
2022-12-27T18:34:21.449Z,92.57
2022-12-27T18:36:53.143Z,92.18
2022-12-27T18:39:29.167Z,92.06
2022-12-27T18:42:01.171Z,92.28
2022-12-27T18:44:33.797Z,92.18
2022-12-27T18:47:04.903Z,92.11
2022-12-27T18:49:36.225Z,92.11
2022-12-27T18:52:14.591Z,92.59
2022-12-27T18:54:43.960Z,92.59
2022-12-27T18:57:36.028Z,92.74
2022-12-27T19:00:19.726Z,92.85
2022-12-27T19:02:48.162Z,92.70
2022-12-27T19:05:30.110Z,92.22
2022-12-27T19:08:12.110Z,92.81
2022-12-27T19:10:49.492Z,91.98
2022-12-27T19:13:28.532Z,92.91
2022-12-27T19:15:58.530Z,92.56
2022-12-27T19:18:30.390Z,92.13
2022-12-27T19:21:01.703Z,92.05
2022-12-27T19:23:34.113Z,93.04
2022-12-27T19:26:20.574Z,92.61
2022-12-27T19:29:04.312Z,92.49
2022-12-27T19:31:33.064Z,92.99
2022-12-27T19:34:04.898Z,92.88
2022-12-27T19:36:38.668Z,92.20
2022-12-27T19:39:25.406Z,92.04
2022-12-27T19:42:01.111Z,92.57
2022-12-27T19:44:32.896Z,93.01
2022-12-27T19:47:01.681Z,92.92
2022-12-27T19:49:45.539Z,92.70
2022-12-27T19:52:19.603Z,92.84
2022-12-27T19:54:57.947Z,92.39
2022-12-27T19:57:26.289Z,93.29
2022-12-27T19:59:55.931Z,93.39
2022-12-27T20:02:24.983Z,92.61
2022-12-27T20:04:53.529Z,92.14
2022-12-27T20:07:24.417Z,92.20
2022-12-27T20:09:52.773Z,93.16
2022-12-27T20:12:22.611Z,92.71
2022-12-27T20:14:50.972Z,91.86
2022-12-27T20:17:20.965Z,92.75
2022-12-27T20:19:51.685Z,92.70
2022-12-27T20:22:20.098Z,92.29
2022-12-27T20:24:48.323Z,92.59
2022-12-27T20:27:16.640Z,92.02
2022-12-27T20:29:45.220Z,92.89
2022-12-27T20:32:13.597Z,92.37
2022-12-27T20:34:43.390Z,92.05
2022-12-27T20:37:11.993Z,92.73
2022-12-27T20:39:40.299Z,92.36
2022-12-27T20:42:08.718Z,91.88
2022-12-27T20:44:37.040Z,92.41
2022-12-27T20:47:05.459Z,91.93
2022-12-27T20:49:33.849Z,91.82
2022-12-27T20:52:03.558Z,91.90
2022-12-27T20:54:31.847Z,92.51
2022-12-27T20:57:00.998Z,91.70
2022-12-27T20:59:29.287Z,91.72
2022-12-27T21:01:58.306Z,91.69
2022-12-27T21:04:28.138Z,92.06
2022-12-27T21:06:56.662Z,91.90
2022-12-27T21:09:26.257Z,91.11
2022-12-27T21:11:54.999Z,91.75
2022-12-27T21:14:25.622Z,91.75
2022-12-27T21:16:54.240Z,90.89
2022-12-27T21:19:22.624Z,91.74
2022-12-27T21:21:50.887Z,90.86
2022-12-27T21:24:19.287Z,90.70
2022-12-27T21:26:56.066Z,91.11
2022-12-27T21:29:24.857Z,90.49
2022-12-27T21:31:53.673Z,91.42
2022-12-27T21:34:22.238Z,91.50
2022-12-27T21:36:53.101Z,90.94
2022-12-27T21:39:21.661Z,91.28
2022-12-27T21:41:51.374Z,90.46
2022-12-27T21:44:21.215Z,90.43
2022-12-27T21:46:49.554Z,90.21
2022-12-27T21:49:18.033Z,91.08
2022-12-27T21:51:46.502Z,90.50
2022-12-27T21:54:16.324Z,90.42
2022-12-27T21:56:44.675Z,90.59
2022-12-27T21:59:14.430Z,90.50
2022-12-27T22:01:51.989Z,90.75
2022-12-27T22:04:21.964Z,90.14
2022-12-27T22:06:50.481Z,89.95
2022-12-27T22:09:19.549Z,90.04
2022-12-27T22:11:48.992Z,90.45
2022-12-27T22:14:24.898Z,89.67
2022-12-27T22:16:53.858Z,89.84
2022-12-27T22:19:22.365Z,89.83
2022-12-27T22:21:50.597Z,89.48
2022-12-27T22:24:19.865Z,89.23
2022-12-27T22:26:50.180Z,90.01
2022-12-27T22:29:21.688Z,89.96
2022-12-27T22:31:50.100Z,89.30
2022-12-27T22:34:18.537Z,89.67
2022-12-27T22:36:46.784Z,89.49
2022-12-27T22:39:15.090Z,88.49
2022-12-27T22:41:43.400Z,88.74
2022-12-27T22:44:14.642Z,89.55
2022-12-27T22:49:33.208Z,88.75
2022-12-27T22:52:01.556Z,88.08
2022-12-27T22:55:03.106Z,88.57
2022-12-27T22:57:18.158Z,87.95
2022-12-27T22:59:46.442Z,87.70
2022-12-27T23:02:16.176Z,88.13
2022-12-27T23:04:44.604Z,88.28
2022-12-27T23:07:12.995Z,88.62
2022-12-27T23:09:43.722Z,89.14
2022-12-27T23:12:12.741Z,88.51
2022-12-27T23:14:41.334Z,89.24
2022-12-27T23:17:09.696Z,88.97
2022-12-27T23:19:42.013Z,88.91
2022-12-27T23:22:10.498Z,88.94
2022-12-27T23:24:38.746Z,89.36
2022-12-27T23:27:07.039Z,89.69
2022-12-27T23:29:35.384Z,89.35
2022-12-27T23:32:03.861Z,89.55
2022-12-27T23:34:32.463Z,89.37
2022-12-27T23:37:02.223Z,89.94
2022-12-27T23:39:30.576Z,89.61
2022-12-27T23:41:58.892Z,89.52
2022-12-27T23:44:33.388Z,89.88
2022-12-27T23:47:05.890Z,90.27
2022-12-27T23:49:34.678Z,90.30
2022-12-27T23:52:04.665Z,90.54
2022-12-27T23:54:33.002Z,90.20
2022-12-27T23:57:22.545Z,90.58
2022-12-27T23:59:50.159Z,90.64
